Time;durP1;ratioP1;P1;durP2;ratioP2;P2;SDS_P1;SDS_P2;PMS_P1;PMS_P2;Temp;Humidity;BMP_temperature;BMP_pressure;BME280_temperature;BME280_humidity;BME280_pressure;Samples;Min_cycle;Max_cycle;Signal;HPM_P1;HPM_P2
2022/01/15 00:01:10;;;;;;;6.30;1.30;;;;;;;0.93;63.93;98124.68;109044;1276;137650;-62
2022/01/15 00:03:38;;;;;;;3.50;1.00;;;;;;;0.95;64.19;98128.48;109068;1277;22393;-62
2022/01/15 00:06:06;;;;;;;3.00;0.90;;;;;;;0.97;64.02;98127.02;109247;1274;137067;-61
2022/01/15 00:08:34;;;;;;;2.00;0.90;;;;;;;0.98;63.00;98138.69;109371;1274;22452;-62
2022/01/15 00:11:02;;;;;;;3.20;1.30;;;;;;;0.99;61.89;98137.23;109350;1274;22444;-62
2022/01/15 00:13:31;;;;;;;3.30;1.30;;;;;;;1.01;61.06;98135.16;109289;1274;138146;-62
2022/01/15 00:16:09;;;;;;;2.70;1.10;;;;;;;1.01;61.29;98141.55;109404;1274;23153;-62
2022/01/15 00:18:44;;;;;;;4.90;1.60;;;;;;;1.00;60.77;98142.07;109275;1274;138164;-62
2022/01/15 00:21:12;;;;;;;4.60;1.70;;;;;;;0.99;60.75;98146.46;109254;1274;22481;-62
2022/01/15 00:23:41;;;;;;;12.20;3.50;;;;;;;1.00;60.31;98146.62;109362;1274;23642;-62
2022/01/15 00:26:09;;;;;;;13.90;4.40;;;;;;;1.00;60.13;98150.00;109190;1275;137075;-62
2022/01/15 00:28:37;;;;;;;8.70;3.20;;;;;;;1.00;60.05;98154.45;109371;1274;22422;-62
2022/01/15 00:31:04;;;;;;;18.50;5.70;;;;;;;1.01;59.73;98159.83;109225;1274;136993;-62
2022/01/15 00:33:33;;;;;;;13.70;5.80;;;;;;;1.02;60.32;98161.67;109344;1274;22533;-62
2022/01/15 00:36:01;;;;;;;12.70;4.20;;;;;;;1.01;60.14;98158.02;109299;1274;138641;-61
2022/01/15 00:38:29;;;;;;;5.80;2.40;;;;;;;1.01;59.96;98165.58;109459;1274;22477;-62
2022/01/15 00:40:57;;;;;;;4.80;1.50;;;;;;;1.00;60.38;98170.67;109429;1274;22472;-62
2022/01/15 00:43:24;;;;;;;5.90;1.90;;;;;;;0.99;60.46;98168.98;109170;1274;136729;-62
2022/01/15 00:45:55;;;;;;;4.10;1.10;;;;;;;0.98;60.95;98170.93;109347;1275;23316;-62
2022/01/15 00:48:24;;;;;;;9.00;1.20;;;;;;;0.98;60.99;98167.48;109194;1274;137283;-61
2022/01/15 00:50:52;;;;;;;3.70;1.50;;;;;;;0.98;60.25;98172.48;109370;1274;22559;-61
2022/01/15 00:53:20;;;;;;;3.30;1.10;;;;;;;0.97;60.57;98175.73;109397;1274;22536;-62
2022/01/15 00:55:48;;;;;;;5.60;1.30;;;;;;;0.97;60.62;98176.11;109217;1274;139384;-62
2022/01/15 00:58:16;;;;;;;3.70;1.30;;;;;;;0.98;60.33;98179.82;109381;1274;23236;-63
2022/01/15 01:00:45;;;;;;;4.90;1.70;;;;;;;0.97;60.75;98178.35;109234;1274;138108;-62
2022/01/15 01:03:13;;;;;;;6.80;1.30;;;;;;;0.97;60.58;98183.17;109398;1274;22498;-62
2022/01/15 01:05:41;;;;;;;2.60;1.30;;;;;;;0.96;60.82;98185.62;108399;1274;22601;-62
2022/01/15 01:08:09;;;;;;;7.10;1.90;;;;;;;0.95;60.54;98187.20;104932;1274;139057;-61
2022/01/15 01:23:49;;;;;;;4.50;1.10;;;;;;;0.87;61.33;98206.40;105217;1274;24238;-61
2022/01/15 01:26:31;;;;;;;4.30;2.00;;;;;;;0.87;61.07;98207.89;105145;1274;138938;-61
2022/01/15 01:34:43;;;;;;;5.10;2.80;;;;;;;0.85;61.16;98219.27;108459;1281;23290;-61
2022/01/15 01:42:36;;;;;;;7.60;3.20;;;;;;;0.83;62.04;98234.12;108612;1281;138396;-59
2022/01/15 01:45:08;;;;;;;8.70;2.20;;;;;;;0.81;62.40;98237.19;108807;1281;22485;-59
2022/01/15 01:47:40;;;;;;;5.80;1.50;;;;;;;0.80;62.19;98240.63;108801;1281;23679;-59
2022/01/15 01:50:22;;;;;;;4.40;2.50;;;;;;;0.78;62.43;98241.71;108661;1280;139986;-59
2022/01/15 01:52:52;;;;;;;7.00;1.40;;;;;;;0.77;62.93;98245.85;108749;1281;23821;-60
2022/01/15 01:55:22;;;;;;;7.00;1.60;;;;;;;0.76;66.20;98266.23;108657;1280;138010;-59
2022/01/15 01:57:51;;;;;;;5.70;1.30;;;;;;;0.72;73.67;98277.14;108787;1281;23420;-60
2022/01/15 02:00:20;;;;;;;3.90;1.10;;;;;;;0.56;81.36;98275.23;108556;1281;138775;-60
2022/01/15 02:02:48;;;;;;;2.70;1.00;;;;;;;0.34;83.51;98285.69;108812;1281;23688;-59
2022/01/15 02:05:17;;;;;;;2.90;1.00;;;;;;;0.21;84.77;98290.74;108749;1280;23824;-59
2022/01/15 02:07:45;;;;;;;7.40;2.90;;;;;;;0.13;85.07;98284.48;108606;1280;137878;-59
2022/01/15 02:10:16;;;;;;;5.30;1.70;;;;;;;0.10;82.77;98283.89;108666;1281;22674;-60
2022/01/15 02:12:44;;;;;;;5.30;1.50;;;;;;;0.10;81.67;98283.73;109058;1274;138416;-59
2022/01/15 02:15:14;;;;;;;4.80;2.20;;;;;;;0.12;78.61;98299.82;109397;1274;22501;-62
2022/01/15 02:17:43;;;;;;;5.90;1.70;;;;;;;0.15;77.35;98295.29;109331;1274;22514;-62
2022/01/15 02:25:53;;;;;;;5.20;1.80;;;;;;;0.18;73.09;98300.03;109204;1274;138165;-62
2022/01/15 02:28:23;;;;;;;9.00;2.00;;;;;;;0.20;72.37;98307.65;109356;1274;22563;-62
2022/01/15 02:30:54;;;;;;;4.70;1.40;;;;;;;0.20;72.59;98324.29;109244;1274;137867;-62
2022/01/15 02:33:22;;;;;;;4.90;1.60;;;;;;;0.20;75.72;98323.39;109355;1274;22467;-62
2022/01/15 02:35:50;;;;;;;6.40;1.90;;;;;;;0.16;82.83;98331.20;109350;1272;22512;-62
2022/01/15 02:38:18;;;;;;;5.70;1.40;;;;;;;0.11;81.76;98325.91;109281;1274;137658;-62
2022/01/15 02:40:46;;;;;;;4.40;1.20;;;;;;;0.06;79.58;98321.30;109380;1274;23417;-62
2022/01/15 02:43:18;;;;;;;3.50;1.30;;;;;;;0.02;77.00;98320.58;109226;1276;137721;-62
2022/01/15 02:45:55;;;;;;;11.30;1.70;;;;;;;-0.00;76.25;98325.35;109309;1274;22507;-62
2022/01/15 02:48:24;;;;;;;6.80;2.10;;;;;;;-0.03;76.21;98324.27;109254;1274;137477;-62
2022/01/15 02:50:53;;;;;;;8.30;2.50;;;;;;;-0.03;75.76;98331.85;109402;1274;23801;-62
2022/01/15 02:53:21;;;;;;;3.40;1.60;;;;;;;-0.04;75.06;98335.69;109287;1273;22443;-62
2022/01/15 02:55:51;;;;;;;6.60;1.60;;;;;;;-0.01;74.02;98336.04;109193;1274;138157;-62
2022/01/15 02:58:19;;;;;;;5.00;1.40;;;;;;;0.04;74.04;98343.14;109401;1274;22423;-62
2022/01/15 03:00:47;;;;;;;4.40;1.50;;;;;;;0.08;72.64;98350.82;109206;1274;137822;-62
2022/01/15 03:03:15;;;;;;;3.30;1.40;;;;;;;0.14;72.03;98353.52;109257;1274;22424;-62
2022/01/15 03:05:44;;;;;;;5.60;2.10;;;;;;;0.19;71.17;98355.20;109334;1274;23561;-62
2022/01/15 03:08:11;;;;;;;5.20;1.90;;;;;;;0.24;70.75;98355.98;109245;1274;137869;-61
2022/01/15 03:10:39;;;;;;;5.30;1.30;;;;;;;0.27;70.36;98357.82;109297;1274;22583;-61
2022/01/15 03:13:11;;;;;;;4.60;1.30;;;;;;;0.30;69.45;98362.01;109264;1274;137139;-61
2022/01/15 03:15:40;;;;;;;6.60;1.30;;;;;;;0.34;68.73;98362.19;109357;1274;22524;-61
2022/01/15 03:18:22;;;;;;;2.70;1.10;;;;;;;0.39;68.16;98353.83;109252;1274;137038;-61
2022/01/15 03:20:49;;;;;;;2.80;1.20;;;;;;;0.43;67.62;98352.17;109336;1274;22601;-61
2022/01/15 03:23:17;;;;;;;2.70;1.00;;;;;;;0.46;67.30;98360.63;109387;1274;23253;-61
2022/01/15 03:25:45;;;;;;;3.80;1.50;;;;;;;0.49;67.23;98359.15;109266;1274;137901;-62
2022/01/15 03:28:13;;;;;;;4.80;1.30;;;;;;;0.50;67.34;98365.04;109405;1274;22436;-62
2022/01/15 03:30:41;;;;;;;7.90;2.70;;;;;;;0.50;67.15;98363.64;109278;1274;137141;-62
2022/01/15 03:33:09;;;;;;;3.40;1.30;;;;;;;0.50;67.12;98367.35;109391;1274;23251;-61
2022/01/15 03:35:37;;;;;;;7.40;2.80;;;;;;;0.50;66.58;98371.19;109349;1274;22486;-61
2022/01/15 03:38:05;;;;;;;4.10;1.20;;;;;;;0.51;66.60;98369.95;109230;1274;136920;-61
2022/01/15 03:40:33;;;;;;;6.10;1.60;;;;;;;0.51;66.44;98377.23;109360;1274;22490;-61
2022/01/15 03:43:01;;;;;;;3.50;1.10;;;;;;;0.52;66.13;98377.48;109205;1274;138987;-61
2022/01/15 03:45:31;;;;;;;4.90;1.50;;;;;;;0.53;65.98;98381.05;109406;1274;22446;-61
2022/01/15 03:47:59;;;;;;;5.30;2.40;;;;;;;0.53;66.09;98372.64;109326;1274;22953;-61
2022/01/15 03:50:27;;;;;;;2.40;1.10;;;;;;;0.54;66.03;98376.14;109231;1274;137298;-61
2022/01/15 03:52:56;;;;;;;4.00;1.20;;;;;;;0.54;65.58;98379.32;109302;1274;23559;-61
2022/01/15 03:55:25;;;;;;;6.20;1.40;;;;;;;0.56;65.55;98382.64;108746;1274;137055;-62
2022/01/15 03:57:53;;;;;;;2.90;1.10;;;;;;;0.56;65.27;98380.91;104932;1276;24001;-61
2022/01/15 04:00:24;;;;;;;4.10;1.20;;;;;;;0.58;65.01;98376.20;109222;1274;137149;-62
2022/01/15 04:02:53;;;;;;;1.50;0.80;;;;;;;0.60;64.69;98376.60;109377;1274;22487;-62
2022/01/15 04:05:21;;;;;;;3.70;1.30;;;;;;;0.62;65.22;98375.47;109404;1273;23103;-62
2022/01/15 04:07:49;;;;;;;1.70;0.90;;;;;;;0.63;65.55;98372.20;109246;1274;139291;-62
2022/01/15 04:10:17;;;;;;;2.70;0.80;;;;;;;0.64;64.73;98388.48;109253;1274;22475;-62
2022/01/15 04:12:45;;;;;;;4.30;1.00;;;;;;;0.68;64.92;98386.84;109237;1274;139074;-62
2022/01/15 04:15:25;;;;;;;3.60;1.00;;;;;;;0.72;64.57;98392.29;109371;1274;22431;-62
2022/01/15 04:17:53;;;;;;;2.30;0.90;;;;;;;0.75;63.83;98391.66;109284;1274;22550;-62
2022/01/15 04:20:23;;;;;;;6.30;0.90;;;;;;;0.79;64.08;98387.34;109193;1274;138089;-61
2022/01/15 04:22:51;;;;;;;2.40;0.80;;;;;;;0.81;64.04;98387.41;109354;1274;22438;-61
2022/01/15 04:25:20;;;;;;;3.80;0.90;;;;;;;0.81;64.49;98389.41;109064;1274;137424;-61
2022/01/15 04:27:48;;;;;;;1.70;1.00;;;;;;;0.82;64.18;98396.88;109378;1274;22419;-61
2022/01/15 04:30:16;;;;;;;2.20;0.90;;;;;;;0.82;64.17;98396.52;109203;1274;137462;-61
2022/01/15 04:32:44;;;;;;;2.40;1.00;;;;;;;0.82;63.75;98398.03;109354;1274;23081;-62
2022/01/15 04:35:12;;;;;;;3.60;1.00;;;;;;;0.83;63.81;98391.99;109361;1274;23591;-62
2022/01/15 04:37:47;;;;;;;3.30;1.40;;;;;;;0.83;63.89;98397.78;109203;1274;137884;-62
2022/01/15 04:40:15;;;;;;;3.40;1.70;;;;;;;0.83;64.04;98401.95;109421;1274;22432;-61
2022/01/15 04:42:44;;;;;;;6.00;2.50;;;;;;;0.82;63.98;98401.41;109219;1274;138713;-62
2022/01/15 04:45:12;;;;;;;3.30;1.10;;;;;;;0.83;64.37;98400.95;109367;1274;23188;-62
2022/01/15 04:47:40;;;;;;;4.60;1.80;;;;;;;0.84;64.03;98399.13;109395;1274;22466;-61
2022/01/15 04:50:11;;;;;;;7.80;3.20;;;;;;;0.84;63.56;98402.02;109265;1274;137858;-61
2022/01/15 04:52:39;;;;;;;5.30;2.20;;;;;;;0.85;63.85;98405.64;109353;1274;23163;-61
2022/01/15 04:55:09;;;;;;;2.30;1.20;;;;;;;0.87;63.64;98409.69;109230;1274;136862;-55
2022/01/15 04:57:37;;;;;;;2.10;1.10;;;;;;;0.87;63.64;98407.73;109333;1274;22627;-61
2022/01/15 05:00:10;;;;;;;4.30;1.30;;;;;;;0.87;63.66;98412.36;109327;1274;23711;-61
2022/01/15 05:02:38;;;;;;;2.20;1.50;;;;;;;0.88;63.91;98417.63;109274;1274;137633;-61
2022/01/15 05:05:07;;;;;;;5.50;2.30;;;;;;;0.87;63.98;98410.22;109318;1274;22478;-61
2022/01/15 05:07:36;;;;;;;4.00;1.30;;;;;;;0.87;63.68;98412.74;109321;1274;137109;-61
2022/01/15 05:10:09;;;;;;;1.80;0.90;;;;;;;0.87;63.73;98413.64;109399;1274;23279;-61
2022/01/15 05:12:43;;;;;;;4.40;1.60;;;;;;;0.87;63.91;98416.70;109208;1276;137156;-61
2022/01/15 05:15:12;;;;;;;2.10;1.00;;;;;;;0.87;64.13;98414.13;109341;1276;22416;-62
2022/01/15 05:17:40;;;;;;;2.90;1.10;;;;;;;0.88;64.24;98421.13;109372;1274;23285;-62
2022/01/15 05:20:08;;;;;;;2.90;1.30;;;;;;;0.88;64.66;98420.23;109297;1274;137196;-62
2022/01/15 05:22:37;;;;;;;3.40;1.20;;;;;;;0.88;64.74;98423.23;109337;1274;22530;-62
2022/01/15 05:25:13;;;;;;;9.60;3.10;;;;;;;0.88;64.50;98427.90;109280;1274;137877;-62
2022/01/15 05:27:41;;;;;;;4.50;1.90;;;;;;;0.88;64.65;98432.02;105010;1274;24204;-61
2022/01/15 05:30:10;;;;;;;8.40;1.90;;;;;;;0.89;64.70;98439.07;109350;1274;23459;-62
2022/01/15 05:32:38;;;;;;;4.20;1.40;;;;;;;0.89;64.42;98438.73;109287;1274;136647;-62
2022/01/15 05:35:07;;;;;;;4.20;1.10;;;;;;;0.89;64.60;98439.35;109393;1274;22452;-62
2022/01/15 05:37:35;;;;;;;4.40;1.50;;;;;;;0.90;64.54;98445.49;109221;1274;137744;-62
2022/01/15 05:40:04;;;;;;;5.20;1.50;;;;;;;0.90;64.13;98442.11;109352;1274;22444;-61
2022/01/15 05:42:32;;;;;;;2.90;0.80;;;;;;;0.92;63.77;98445.02;109284;1274;138738;-61
2022/01/15 05:45:00;;;;;;;4.40;1.60;;;;;;;0.93;64.21;98450.09;109374;1274;22486;-61
2022/01/15 05:47:31;;;;;;;3.10;1.20;;;;;;;0.93;63.93;98449.84;109346;1274;22491;-62
2022/01/15 05:49:58;;;;;;;1.80;1.10;;;;;;;0.94;63.45;98449.09;109209;1274;136920;-62
2022/01/15 05:52:26;;;;;;;4.00;0.90;;;;;;;0.96;63.30;98454.64;109354;1274;23750;-62
2022/01/15 05:54:54;;;;;;;3.00;1.20;;;;;;;0.99;62.90;98458.54;109253;1274;137355;-62
2022/01/15 05:57:22;;;;;;;5.20;1.50;;;;;;;1.01;62.93;98459.20;105387;1274;23049;-61
2022/01/15 05:59:53;;;;;;;5.10;1.60;;;;;;;1.02;62.43;98459.80;105018;1274;23191;-61
2022/01/15 06:02:21;;;;;;;4.20;1.30;;;;;;;1.05;62.11;98460.27;104833;1276;137184;-61
2022/01/15 06:04:49;;;;;;;4.90;1.80;;;;;;;1.07;62.05;98464.99;109255;1274;23288;-62
2022/01/15 06:10:03;;;;;;;7.30;2.60;;;;;;;1.10;62.48;98466.16;101876;1310;545277;-60
2022/01/15 06:12:41;;;;;;;4.90;2.10;;;;;;;1.09;61.96;98466.23;103932;1287;138382;-60
2022/01/15 06:15:11;;;;;;;7.90;3.60;;;;;;;1.11;61.95;98471.53;103979;1286;22730;-60
2022/01/15 06:17:40;;;;;;;6.40;2.20;;;;;;;1.11;62.19;98470.91;108293;1286;22482;-61
2022/01/15 06:20:09;;;;;;;4.80;1.50;;;;;;;1.10;61.96;98473.35;108107;1286;136829;-61
2022/01/15 06:22:38;;;;;;;2.60;1.40;;;;;;;1.11;62.06;98476.06;108226;1285;121844;-61
2022/01/15 06:25:06;;;;;;;2.40;1.50;;;;;;;1.12;61.71;98485.67;108341;1284;137096;-61
2022/01/15 06:27:35;;;;;;;5.20;1.40;;;;;;;1.13;61.22;98475.48;108210;1285;22473;-61
2022/01/15 06:30:03;;;;;;;5.00;1.40;;;;;;;1.14;61.07;98486.73;108379;1285;22413;-61
2022/01/15 06:32:36;;;;;;;3.20;1.40;;;;;;;1.19;61.05;98488.93;108194;1285;137588;-61
2022/01/15 06:35:09;;;;;;;4.80;2.30;;;;;;;1.21;61.30;98491.75;108314;1286;22586;-61
2022/01/15 06:37:37;;;;;;;2.60;1.10;;;;;;;1.23;61.21;98500.89;108143;1285;139168;-61
2022/01/15 06:40:05;;;;;;;4.40;1.40;;;;;;;1.23;61.44;98506.27;108089;1287;22444;-61
2022/01/15 06:42:33;;;;;;;2.30;1.10;;;;;;;1.25;61.68;98511.20;108086;1286;137026;-61
2022/01/15 06:45:02;;;;;;;3.60;1.60;;;;;;;1.25;61.66;98511.52;108220;1286;23345;-61
2022/01/15 06:47:30;;;;;;;6.30;3.30;;;;;;;1.26;61.82;98507.85;108188;1286;23163;-61
2022/01/15 06:50:04;;;;;;;5.20;2.60;;;;;;;1.27;62.06;98522.04;107983;1287;138470;-61
2022/01/15 06:52:33;;;;;;;7.90;3.50;;;;;;;1.28;62.27;98517.62;108218;1287;22498;-60
2022/01/15 06:55:02;;;;;;;9.40;3.20;;;;;;;1.29;62.67;98522.27;108761;1280;136614;-61
2022/01/15 06:57:30;;;;;;;8.80;4.20;;;;;;;1.30;62.73;98531.20;108988;1279;22482;-61
2022/01/15 06:59:58;;;;;;;13.30;4.20;;;;;;;1.31;62.93;98527.13;109008;1280;22340;-61
2022/01/15 07:02:26;;;;;;;6.60;2.10;;;;;;;1.32;62.85;98524.32;108894;1280;137264;-61
2022/01/15 07:04:54;;;;;;;4.40;1.60;;;;;;;1.32;62.97;98529.11;109004;1279;23319;-61
2022/01/15 07:07:21;;;;;;;7.50;3.20;;;;;;;1.32;63.08;98530.77;104840;1280;136972;-60
2022/01/15 07:09:50;;;;;;;7.80;2.60;;;;;;;1.32;63.60;98532.20;108936;1279;24348;-60
2022/01/15 07:12:17;;;;;;;13.30;3.60;;;;;;;1.33;63.59;98540.50;108863;1280;138453;-58
2022/01/15 07:14:45;;;;;;;8.30;3.10;;;;;;;1.32;63.62;98543.27;108921;1280;22501;-60
2022/01/15 07:17:13;;;;;;;10.90;3.60;;;;;;;1.31;63.94;98543.31;109094;1278;23244;-60
2022/01/15 07:19:41;;;;;;;9.20;2.80;;;;;;;1.32;63.94;98543.69;108952;1279;136865;-61
2022/01/15 07:22:09;;;;;;;7.60;3.10;;;;;;;1.32;64.22;98550.58;109056;1278;22549;-61
2022/01/15 07:24:37;;;;;;;6.10;1.90;;;;;;;1.32;64.13;98558.88;108978;1277;136804;-61
2022/01/15 07:27:06;;;;;;;9.50;2.70;;;;;;;1.32;63.99;98558.08;109045;1279;22517;-61
2022/01/15 07:29:37;;;;;;;5.80;2.40;;;;;;;1.32;64.28;98557.06;109068;1277;22476;-61
2022/01/15 07:32:06;;;;;;;6.50;2.70;;;;;;;1.32;64.48;98563.86;108959;1280;137226;-61
2022/01/15 07:34:33;;;;;;;6.30;4.30;;;;;;;1.33;64.40;98562.66;109030;1279;22483;-61
2022/01/15 07:37:02;;;;;;;8.30;4.20;;;;;;;1.33;64.53;98563.48;108914;1278;136851;-61
2022/01/15 07:39:31;;;;;;;10.40;4.20;;;;;;;1.35;64.67;98556.20;108871;1279;22580;-61
2022/01/15 07:41:58;;;;;;;7.90;3.70;;;;;;;1.37;64.36;98553.46;109052;1277;23332;-61
2022/01/15 07:44:26;;;;;;;9.50;3.20;;;;;;;1.39;64.50;98548.04;108742;1277;138837;-61
2022/01/15 07:46:54;;;;;;;9.20;3.90;;;;;;;1.40;64.49;98553.85;108984;1278;22439;-61
2022/01/15 07:49:24;;;;;;;9.10;2.90;;;;;;;1.41;64.63;98553.05;108916;1277;137159;-61
2022/01/15 07:51:52;;;;;;;13.50;4.90;;;;;;;1.44;64.40;98558.89;109035;1277;23657;-61
2022/01/15 07:54:20;;;;;;;4.20;2.10;;;;;;;1.47;64.51;98558.52;108890;1277;139565;-60
2022/01/15 07:56:48;;;;;;;5.00;2.60;;;;;;;1.47;64.38;98561.08;109004;1280;22477;-61
2022/01/15 07:59:16;;;;;;;6.10;3.20;;;;;;;1.50;64.25;98570.05;109064;1277;22556;-61
2022/01/15 08:01:44;;;;;;;9.90;4.60;;;;;;;1.50;64.20;98569.25;108844;1277;137725;-60
2022/01/15 08:04:12;;;;;;;11.40;6.00;;;;;;;1.51;64.02;98567.48;108881;1280;22555;-60
2022/01/15 08:06:41;;;;;;;7.80;5.00;;;;;;;1.52;64.18;98568.34;108884;1280;138742;-60
2022/01/15 08:09:09;;;;;;;8.80;2.40;;;;;;;1.51;64.52;98568.96;108971;1280;22509;-60
2022/01/15 08:11:37;;;;;;;5.10;2.50;;;;;;;1.51;64.55;98573.10;108965;1280;22536;-61
2022/01/15 08:14:05;;;;;;;2.60;1.20;;;;;;;1.50;64.51;98579.99;108869;1280;137020;-60
2022/01/15 08:16:34;;;;;;;4.70;2.00;;;;;;;1.50;64.45;98578.17;108864;1280;22490;-61
2022/01/15 08:19:02;;;;;;;12.40;6.00;;;;;;;1.50;64.54;98581.85;108899;1279;138461;-59
2022/01/15 08:21:29;;;;;;;11.90;4.60;;;;;;;1.49;64.25;98585.00;109006;1279;22467;-60
2022/01/15 08:23:57;;;;;;;6.60;2.90;;;;;;;1.49;64.64;98592.35;108524;1281;137779;-61
2022/01/15 08:26:25;;;;;;;10.20;4.60;;;;;;;1.49;64.75;98597.93;108745;1280;22575;-61
2022/01/15 08:28:53;;;;;;;9.70;2.80;;;;;;;1.48;65.07;98603.21;108988;1280;22741;-61
2022/01/15 08:31:21;;;;;;;9.50;3.10;;;;;;;1.48;65.36;98612.02;108842;1280;139035;-59
2022/01/15 08:33:49;;;;;;;6.50;1.70;;;;;;;1.47;65.70;98614.79;108717;1281;22639;-61
2022/01/15 08:36:17;;;;;;;4.00;1.30;;;;;;;1.47;65.76;98619.66;108741;1280;136983;-60
2022/01/15 08:38:45;;;;;;;6.30;1.60;;;;;;;1.46;66.05;98622.06;108787;1281;22506;-62
2022/01/15 08:41:33;;;;;;;5.40;2.70;;;;;;;1.47;66.35;98626.52;108726;1280;137804;-61
2022/01/15 08:44:01;;;;;;;7.90;3.20;;;;;;;1.47;66.56;98625.20;108959;1280;22450;-61
2022/01/15 08:46:29;;;;;;;6.60;2.90;;;;;;;1.50;66.72;98628.02;108936;1279;22468;-61
2022/01/15 08:48:57;;;;;;;7.90;2.90;;;;;;;1.52;66.73;98629.70;108871;1280;136958;-62
2022/01/15 08:51:25;;;;;;;4.80;2.50;;;;;;;1.53;66.84;98635.17;108959;1280;23248;-61
2022/01/15 08:53:53;;;;;;;11.60;3.80;;;;;;;1.53;67.18;98636.67;108783;1280;139024;-61
2022/01/15 08:56:20;;;;;;;6.60;2.30;;;;;;;1.52;67.24;98637.46;108830;1281;22426;-61
2022/01/15 08:58:48;;;;;;;8.90;2.50;;;;;;;1.51;67.49;98638.74;108765;1281;23397;-60
2022/01/15 09:01:16;;;;;;;5.20;1.90;;;;;;;1.49;67.47;98633.15;108827;1281;136820;-61
2022/01/15 09:03:46;;;;;;;4.80;1.90;;;;;;;1.48;67.67;98642.29;108840;1281;22463;-61
2022/01/15 09:06:14;;;;;;;2.70;1.80;;;;;;;1.47;67.71;98634.82;108805;1280;138676;-61
2022/01/15 09:08:43;;;;;;;3.90;1.70;;;;;;;1.48;67.80;98633.77;108912;1280;22652;-60
2022/01/15 09:11:11;;;;;;;3.90;1.60;;;;;;;1.50;67.69;98629.42;108771;1281;138491;-61
2022/01/15 09:13:49;;;;;;;6.40;1.80;;;;;;;1.53;67.71;98629.90;108897;1280;22666;-61
2022/01/15 09:16:17;;;;;;;5.10;1.50;;;;;;;1.54;67.94;98637.73;106900;1281;25354;-61
2022/01/15 09:18:45;;;;;;;4.70;2.50;;;;;;;1.54;68.83;98647.61;108706;1280;136961;-61
2022/01/15 09:21:16;;;;;;;7.40;1.60;;;;;;;1.52;68.60;98654.31;108956;1280;22430;-61
2022/01/15 09:23:43;;;;;;;5.80;1.70;;;;;;;1.51;68.55;98652.02;108785;1280;138875;-61
2022/01/15 09:26:22;;;;;;;8.30;2.90;;;;;;;1.51;68.21;98657.42;108938;1281;22455;-61
2022/01/15 09:31:37;;;;;;;4.20;2.00;;;;;;;1.59;68.36;98651.02;108739;1280;138350;-61
2022/01/15 09:34:06;;;;;;;5.20;2.40;;;;;;;1.64;68.29;98656.66;109138;1276;22629;-61
2022/01/15 09:36:35;;;;;;;5.80;2.50;;;;;;;1.68;68.08;98657.92;109051;1277;136885;-61
2022/01/15 09:39:02;;;;;;;9.10;2.50;;;;;;;1.72;67.76;98666.36;109250;1277;23310;-61
2022/01/15 09:41:31;;;;;;;6.30;3.20;;;;;;;1.74;67.81;98663.25;109047;1277;137966;-61
2022/01/15 09:43:59;;;;;;;3.00;1.50;;;;;;;1.75;67.87;98664.27;109002;1277;22528;-61
2022/01/15 09:46:27;;;;;;;4.80;1.50;;;;;;;1.73;68.03;98658.65;109221;1277;22450;-61
2022/01/15 09:48:55;;;;;;;5.00;1.80;;;;;;;1.70;67.76;98660.34;109053;1277;138682;-61
2022/01/15 09:51:22;;;;;;;6.20;1.70;;;;;;;1.67;68.36;98666.64;109065;1277;22532;-61
2022/01/15 09:53:50;;;;;;;6.50;1.70;;;;;;;1.65;68.38;98661.58;108959;1276;137833;-61
2022/01/15 09:56:19;;;;;;;3.80;1.90;;;;;;;1.65;69.06;98662.85;109156;1277;23686;-61
2022/01/15 09:58:47;;;;;;;4.10;1.80;;;;;;;1.66;69.28;98671.02;109204;1276;22549;-61
2022/01/15 10:01:15;;;;;;;4.90;1.70;;;;;;;1.68;69.23;98669.20;108991;1277;137996;-61
2022/01/15 10:03:44;;;;;;;4.80;1.60;;;;;;;1.68;69.28;98663.66;109219;1277;22465;-61
2022/01/15 10:06:11;;;;;;;4.50;2.30;;;;;;;1.68;69.16;98660.48;109047;1276;137239;-61
2022/01/15 10:08:40;;;;;;;11.20;2.90;;;;;;;1.68;69.46;98663.08;109121;1277;22599;-61
2022/01/15 10:11:11;;;;;;;12.70;4.40;;;;;;;1.69;69.48;98671.71;109182;1277;22465;-61
2022/01/15 10:13:44;;;;;;;6.60;2.60;;;;;;;1.70;69.70;98669.23;109146;1277;136763;-61
2022/01/15 10:16:14;;;;;;;4.70;1.80;;;;;;;1.70;69.38;98670.13;109243;1277;23547;-61
2022/01/15 10:18:44;;;;;;;11.50;3.00;;;;;;;1.72;69.33;98674.82;109104;1277;137042;-61
2022/01/15 10:21:29;;;;;;;7.30;2.40;;;;;;;1.73;68.97;98688.19;109209;1277;22463;-61
2022/01/15 10:23:58;;;;;;;4.00;1.70;;;;;;;1.74;68.64;98681.02;109049;1277;138464;-61
2022/01/15 10:26:27;;;;;;;6.60;2.60;;;;;;;1.76;68.43;98683.18;109240;1276;22365;-61
2022/01/15 10:28:57;;;;;;;9.20;3.20;;;;;;;1.80;68.42;98684.52;109213;1277;22488;-61
2022/01/15 10:31:30;;;;;;;8.50;3.90;;;;;;;1.81;68.09;98690.46;109019;1276;138068;-61
2022/01/15 10:33:59;;;;;;;7.10;2.20;;;;;;;1.82;67.93;98685.62;109243;1277;23283;-61
2022/01/15 10:36:32;;;;;;;4.10;1.80;;;;;;;1.80;67.74;98691.38;109076;1277;142287;-61
2022/01/15 10:39:17;;;;;;;4.40;2.60;;;;;;;1.80;67.65;98693.20;109169;1277;23455;-61
2022/01/15 10:41:46;;;;;;;6.00;2.20;;;;;;;1.78;68.36;98693.13;109076;1276;137190;-61
2022/01/15 10:44:34;;;;;;;5.90;3.10;;;;;;;1.72;69.49;98696.86;109192;1275;22505;-61
2022/01/15 10:47:11;;;;;;;7.10;1.70;;;;;;;1.65;69.85;98713.88;109254;1277;22441;-61
2022/01/15 10:49:39;;;;;;;6.20;2.50;;;;;;;1.57;69.64;98712.62;109129;1275;138739;-61
2022/01/15 10:52:21;;;;;;;6.80;3.70;;;;;;;1.53;69.67;98709.31;109141;1276;22528;-61
2022/01/15 10:54:50;;;;;;;9.20;4.10;;;;;;;1.53;70.01;98711.34;109099;1276;137724;-60
2022/01/15 10:57:24;;;;;;;6.80;3.10;;;;;;;1.53;70.28;98709.90;109259;1277;22460;-61
2022/01/15 11:00:00;;;;;;;6.90;2.40;;;;;;;1.53;70.63;98714.35;109162;1276;137733;-61
2022/01/15 11:02:28;;;;;;;3.50;2.10;;;;;;;1.50;71.67;98718.34;109231;1276;22491;-60
2022/01/15 11:05:00;;;;;;;6.60;2.00;;;;;;;1.47;71.33;98714.19;109223;1276;22576;-61
2022/01/15 11:07:28;;;;;;;8.10;2.10;;;;;;;1.45;71.56;98716.27;109084;1276;137957;-61
2022/01/15 11:09:56;;;;;;;6.90;2.40;;;;;;;1.47;71.66;98723.69;109233;1277;22530;-61
2022/01/15 11:12:26;;;;;;;8.90;2.20;;;;;;;1.46;71.42;98723.15;109139;1276;138191;-61
2022/01/15 11:14:54;;;;;;;4.40;2.10;;;;;;;1.48;71.61;98712.23;109173;1276;22516;-61
2022/01/15 11:17:42;;;;;;;5.80;2.00;;;;;;;1.49;71.23;98710.08;109142;1276;138015;-61
2022/01/15 11:20:10;;;;;;;4.20;1.40;;;;;;;1.52;71.02;98717.29;109207;1276;22492;-61
2022/01/15 11:22:41;;;;;;;5.10;2.00;;;;;;;1.56;70.63;98716.22;109183;1276;22513;-61
2022/01/15 11:25:12;;;;;;;4.10;1.80;;;;;;;1.60;69.94;98720.42;109068;1276;137894;-55
2022/01/15 11:27:40;;;;;;;4.40;1.90;;;;;;;1.64;69.93;98725.23;109209;1276;23555;-61
2022/01/15 11:30:08;;;;;;;4.60;2.10;;;;;;;1.65;69.89;98718.08;109106;1276;137150;-61
2022/01/15 11:32:36;;;;;;;5.70;2.30;;;;;;;1.68;69.57;98729.50;109165;1276;22543;-61
2022/01/15 11:35:08;;;;;;;3.20;1.60;;;;;;;1.68;69.25;98737.84;109248;1276;22780;-61
2022/01/15 11:37:46;;;;;;;4.00;1.80;;;;;;;1.68;69.13;98729.25;108994;1276;137427;-61
2022/01/15 11:40:39;;;;;;;3.10;1.70;;;;;;;1.70;69.12;98732.64;109172;1276;22466;-61
2022/01/15 11:43:25;;;;;;;6.40;2.40;;;;;;;1.70;68.65;98730.42;109112;1276;139918;-61
2022/01/15 11:45:58;;;;;;;4.60;2.00;;;;;;;1.75;68.34;98742.19;109193;1276;23134;-61
2022/01/15 11:48:33;;;;;;;3.80;1.40;;;;;;;1.79;68.40;98744.07;109055;1276;139522;-61
2022/01/15 11:51:18;;;;;;;5.40;2.10;;;;;;;1.81;68.00;98748.64;109217;1276;22441;-60
2022/01/15 11:53:52;;;;;;;104.30;34.10;;;;;;;1.82;67.80;98750.28;109088;1276;138965;-60
2022/01/15 11:56:25;;;;;;;36.90;19.10;;;;;;;1.82;67.24;98745.77;109169;1277;22429;-60
2022/01/15 11:58:56;;;;;;;12.80;9.40;;;;;;;1.81;67.34;98751.65;109209;1276;22549;-60
2022/01/15 12:01:44;;;;;;;8.80;5.00;;;;;;;1.79;67.23;98759.18;109042;1276;138494;-60
2022/01/15 12:04:32;;;;;;;27.30;12.40;;;;;;;1.77;67.42;98758.83;109181;1277;22545;-60
2022/01/15 12:07:01;;;;;;;57.50;20.50;;;;;;;1.74;67.98;98758.89;109053;1276;142621;-60
2022/01/15 12:09:39;;;;;;;45.30;16.40;;;;;;;1.71;67.66;98768.15;109230;1276;22564;-60
2022/01/15 12:12:38;;;;;;;14.10;5.60;;;;;;;1.68;68.29;98757.88;109120;1276;137634;-60
2022/01/15 12:15:09;;;;;;;9.10;3.40;;;;;;;1.68;68.28;98765.77;109208;1276;22413;-60
2022/01/15 12:17:46;;;;;;;3.50;1.90;;;;;;;1.68;68.48;98776.71;109159;1276;139104;-60